createdAt,value
2018-07-01T00:02:11.997Z,101117.07
2018-07-01T00:04:41.057Z,101115.60
2018-07-01T00:07:10.160Z,101116.76
2018-07-01T00:09:39.273Z,101120.78
2018-07-01T00:12:08.456Z,101125.79
2018-07-01T00:14:37.543Z,101130.06
2018-07-01T00:17:06.811Z,101130.67
2018-07-01T00:19:35.935Z,101126.91
2018-07-01T00:22:05.131Z,101122.66
2018-07-01T00:24:34.229Z,101129.58
2018-07-01T00:27:03.413Z,101134.72
2018-07-01T00:29:32.478Z,101139.34
2018-07-01T00:32:01.580Z,101131.33
2018-07-01T00:34:30.696Z,101144.24
2018-07-01T00:36:59.823Z,101142.16
2018-07-01T00:39:28.951Z,101142.89
2018-07-01T00:41:58.054Z,101137.17
2018-07-01T00:44:27.121Z,101143.98
2018-07-01T00:46:56.264Z,101146.05
2018-07-01T00:49:25.400Z,101148.38
2018-07-01T00:51:54.491Z,101142.88
2018-07-01T00:54:23.654Z,101145.10
2018-07-01T00:56:52.740Z,101146.56
2018-07-01T00:59:21.867Z,101141.55
2018-07-01T01:01:50.980Z,101142.88
2018-07-01T01:04:20.123Z,101147.29
2018-07-01T01:06:49.224Z,101140.20
2018-07-01T01:09:18.391Z,101145.56
2018-07-01T01:11:53.826Z,101145.45
2018-07-01T01:14:22.960Z,101147.53
2018-07-01T01:16:52.048Z,101146.91
2018-07-01T01:19:21.177Z,101143.02
2018-07-01T01:21:50.244Z,101147.04
2018-07-01T01:24:19.372Z,101147.76
2018-07-01T01:26:48.492Z,101155.69
2018-07-01T01:29:17.639Z,101152.98
2018-07-01T01:31:46.764Z,101152.88
2018-07-01T01:34:15.937Z,101153.86
2018-07-01T01:36:45.577Z,101152.25
2018-07-01T01:39:23.893Z,101147.38
2018-07-01T01:42:15.745Z,101149.43
2018-07-01T01:44:54.155Z,101150.41
2018-07-01T01:47:31.620Z,101148.34
2018-07-01T01:50:20.270Z,101147.83
2018-07-01T01:52:57.412Z,101150.27
2018-07-01T01:55:31.516Z,101149.41
2018-07-01T01:58:06.926Z,101141.62
2018-07-01T02:00:43.666Z,101148.91
2018-07-01T02:03:17.619Z,101146.23
2018-07-01T02:05:50.534Z,101148.16
2018-07-01T02:08:27.988Z,101150.09
2018-07-01T02:10:57.192Z,101142.89
2018-07-01T02:13:26.883Z,101145.45
2018-07-01T02:16:00.145Z,101149.70
2018-07-01T02:18:29.419Z,101139.23
2018-07-01T02:20:58.607Z,101143.25
2018-07-01T02:23:32.031Z,101145.06
2018-07-01T02:26:01.139Z,101147.34
2018-07-01T02:28:30.296Z,101154.55
2018-07-01T02:30:59.393Z,101159.63
2018-07-01T02:33:28.486Z,101172.48
2018-07-01T02:35:57.576Z,101171.61
2018-07-01T02:38:44.951Z,101176.48
2018-07-01T02:41:18.087Z,101176.59
2018-07-01T02:43:47.216Z,101182.53
2018-07-01T02:46:16.284Z,101184.22
2018-07-01T02:48:45.367Z,101182.72
2018-07-01T02:51:14.487Z,101187.71
2018-07-01T02:53:43.592Z,101184.40
2018-07-01T02:56:12.761Z,101187.58
2018-07-01T02:58:41.822Z,101185.72
2018-07-01T03:01:10.947Z,101190.33
2018-07-01T03:03:40.076Z,101188.00
2018-07-01T03:06:09.218Z,101192.24
2018-07-01T03:08:38.305Z,101194.56
2018-07-01T03:11:07.506Z,101185.42
2018-07-01T03:13:36.613Z,101197.80
2018-07-01T03:16:05.701Z,101203.26
2018-07-01T03:18:34.799Z,101199.16
2018-07-01T03:21:03.885Z,101198.91
2018-07-01T03:23:32.966Z,101204.02
2018-07-01T03:26:02.093Z,101205.93
2018-07-01T03:28:31.192Z,101209.66
2018-07-01T03:31:00.314Z,101207.96
2018-07-01T03:33:29.367Z,101212.95
2018-07-01T03:35:58.492Z,101206.85
2018-07-01T03:38:27.621Z,101198.95
2018-07-01T03:40:56.750Z,101207.32
2018-07-01T03:43:25.843Z,101212.55
2018-07-01T03:45:54.924Z,101205.77
2018-07-01T03:48:24.014Z,101208.94
2018-07-01T03:50:53.201Z,101205.52
2018-07-01T03:53:22.333Z,101201.03
2018-07-01T03:55:51.400Z,101199.81
2018-07-01T03:58:20.527Z,101193.95
2018-07-01T04:00:49.708Z,101202.37
2018-07-01T04:03:18.831Z,101193.95
2018-07-01T04:05:48.007Z,101194.46
2018-07-01T04:08:17.101Z,101192.73
2018-07-01T04:10:46.173Z,101189.13
2018-07-01T04:13:15.335Z,101192.63
2018-07-01T04:15:44.425Z,101191.91
2018-07-01T04:18:13.519Z,101192.38
2018-07-01T04:20:42.589Z,101188.37
2018-07-01T04:23:11.707Z,101194.83
2018-07-01T04:25:40.802Z,101195.91
2018-07-01T04:28:09.960Z,101193.48
2018-07-01T04:30:39.082Z,101196.16
2018-07-01T04:33:08.185Z,101190.81
2018-07-01T04:35:37.279Z,101191.68
2018-07-01T04:38:06.477Z,101187.67
2018-07-01T04:40:35.567Z,101192.28
2018-07-01T04:43:04.640Z,101186.36
2018-07-01T04:45:33.733Z,101188.28
2018-07-01T04:48:02.823Z,101192.68
2018-07-01T04:50:31.923Z,101194.02
2018-07-01T04:53:01.005Z,101191.12
2018-07-01T04:55:30.135Z,101191.37
2018-07-01T04:57:59.216Z,101196.23
2018-07-01T05:00:28.340Z,101192.23
2018-07-01T05:02:57.480Z,101197.35
2018-07-01T05:05:26.595Z,101195.04
2018-07-01T05:07:55.697Z,101203.84
2018-07-01T05:10:24.792Z,101203.89
2018-07-01T05:12:53.913Z,101199.77
2018-07-01T05:15:23.138Z,101208.06
2018-07-01T05:17:52.218Z,101209.69
2018-07-01T05:20:21.336Z,101200.33
2018-07-01T05:22:50.398Z,101203.75
2018-07-01T05:25:19.516Z,101205.84
2018-07-01T05:27:48.602Z,101211.95
2018-07-01T05:30:17.704Z,101208.95
2018-07-01T05:32:46.821Z,101211.27
2018-07-01T05:35:15.903Z,101206.91
2018-07-01T05:37:45.056Z,101208.05
2018-07-01T05:40:14.121Z,101203.42
2018-07-01T05:42:43.320Z,101217.31
2018-07-01T05:45:12.383Z,101217.20
2018-07-01T05:47:41.482Z,101220.74
2018-07-01T05:50:10.554Z,101223.58
2018-07-01T05:52:39.641Z,101221.41
2018-07-01T05:55:09.094Z,101222.91
2018-07-01T05:57:38.213Z,101234.13
2018-07-01T06:00:14.398Z,101224.28
2018-07-01T06:02:43.515Z,101233.42
2018-07-01T06:05:13.514Z,101236.22
2018-07-01T06:07:42.689Z,101231.84
2018-07-01T06:10:11.810Z,101235.30
2018-07-01T06:12:40.903Z,101228.36
2018-07-01T06:15:10.011Z,101232.76
2018-07-01T06:17:39.176Z,101241.06
2018-07-01T06:20:09.394Z,101246.41
2018-07-01T06:22:38.641Z,101248.72
2018-07-01T06:25:07.745Z,101244.73
2018-07-01T06:27:36.853Z,101239.98
2018-07-01T06:30:06.898Z,101238.53
2018-07-01T06:32:36.032Z,101236.61
2018-07-01T06:35:06.162Z,101244.02
2018-07-01T06:37:35.280Z,101250.22
2018-07-01T06:40:04.849Z,101252.06
2018-07-01T06:42:33.930Z,101251.05
2018-07-01T06:45:03.016Z,101257.16
2018-07-01T06:47:32.159Z,101252.02
2018-07-01T06:50:01.269Z,101257.13
2018-07-01T06:52:30.436Z,101249.81
2018-07-01T06:55:00.462Z,101252.69
2018-07-01T06:57:30.578Z,101244.77
2018-07-01T07:00:01.478Z,101253.46
2018-07-01T07:02:32.261Z,101246.97
2018-07-01T07:05:01.449Z,101255.89
2018-07-01T07:07:30.535Z,101271.83
2018-07-01T07:09:59.643Z,101255.62
2018-07-01T07:12:30.019Z,101265.38
2018-07-01T07:15:02.175Z,101274.13
2018-07-01T07:17:31.967Z,101257.86
2018-07-01T07:20:02.192Z,101279.68
2018-07-01T07:22:32.031Z,101273.32
2018-07-01T07:25:05.654Z,101274.78
2018-07-01T07:27:36.466Z,101272.70
2018-07-01T07:30:06.613Z,101265.73
2018-07-01T07:32:38.138Z,101270.72
2018-07-01T07:35:08.911Z,101272.41
2018-07-01T07:37:39.423Z,101267.83
2018-07-01T07:53:08.697Z,101270.24
2018-07-01T07:55:37.880Z,101270.97
2018-07-01T07:58:06.981Z,101277.23
2018-07-01T08:00:36.056Z,101279.02
2018-07-01T08:03:05.272Z,101275.52
2018-07-01T08:05:34.377Z,101277.42
2018-07-01T08:08:03.534Z,101279.02
2018-07-01T08:10:32.605Z,101276.39
2018-07-01T08:13:01.723Z,101275.16
2018-07-01T08:15:30.982Z,101276.95
2018-07-01T08:18:00.155Z,101277.92
2018-07-01T08:20:29.220Z,101277.20
2018-07-01T08:22:58.315Z,101280.99
2018-07-01T08:25:27.421Z,101281.51
2018-07-01T08:27:56.531Z,101287.23
2018-07-01T08:30:25.628Z,101279.41
2018-07-01T08:32:54.771Z,101284.04
2018-07-01T08:35:24.412Z,101289.94
2018-07-01T08:37:53.513Z,101287.66
2018-07-01T08:40:22.641Z,101284.27
2018-07-01T08:42:51.783Z,101285.69
2018-07-01T08:45:21.243Z,101289.38
2018-07-01T08:47:50.715Z,101290.45
2018-07-01T08:50:19.868Z,101294.13
2018-07-01T08:52:49.056Z,101295.16
2018-07-01T08:55:21.098Z,101296.97
2018-07-01T08:57:50.229Z,101287.66
2018-07-01T09:00:20.103Z,101282.16
2018-07-01T09:02:49.358Z,101285.88
2018-07-01T09:05:18.671Z,101287.75
2018-07-01T09:07:47.931Z,101288.81
2018-07-01T09:10:17.040Z,101292.23
2018-07-01T09:12:46.155Z,101293.21
2018-07-01T09:15:15.308Z,101287.91
2018-07-01T09:17:44.452Z,101280.55
2018-07-01T09:20:13.538Z,101284.65
2018-07-01T09:22:42.629Z,101288.32
2018-07-01T09:25:11.750Z,101275.85
2018-07-01T09:27:40.892Z,101278.34
2018-07-01T09:30:09.958Z,101280.38
2018-07-01T09:32:39.036Z,101275.84
2018-07-01T09:35:08.354Z,101266.70
2018-07-01T09:37:37.469Z,101280.47
2018-07-01T09:40:06.626Z,101278.40
2018-07-01T09:42:35.763Z,101273.20
2018-07-01T09:45:04.933Z,101279.31
2018-07-01T09:47:34.114Z,101269.97
2018-07-01T09:50:03.335Z,101267.28
2018-07-01T09:52:32.432Z,101271.86
2018-07-01T09:55:01.692Z,101272.00
2018-07-01T09:57:30.820Z,101271.56
2018-07-01T10:00:00.049Z,101263.19
2018-07-01T10:02:29.274Z,101247.45
2018-07-01T10:04:58.409Z,101256.25
2018-07-01T10:07:27.505Z,101248.03
2018-07-01T10:09:56.769Z,101245.59
2018-07-01T10:12:25.922Z,101251.59
2018-07-01T10:14:55.045Z,101248.16
2018-07-01T10:17:24.131Z,101251.15
2018-07-01T10:19:53.225Z,101248.45
2018-07-01T10:22:22.370Z,101251.57
2018-07-01T10:24:51.520Z,101249.67
2018-07-01T10:27:20.613Z,101254.44
2018-07-01T10:29:49.765Z,101248.28
2018-07-01T10:32:18.931Z,101239.48
2018-07-01T10:34:47.999Z,101251.13
2018-07-01T10:37:17.221Z,101245.11
2018-07-01T10:39:46.311Z,101246.36
2018-07-01T10:42:15.451Z,101243.70
2018-07-01T10:44:44.541Z,101241.71
2018-07-01T10:47:16.774Z,101233.84
2018-07-01T10:49:46.453Z,101239.88
2018-07-01T10:52:15.702Z,101237.63
2018-07-01T10:54:44.825Z,101228.03
2018-07-01T10:57:14.175Z,101225.62
2018-07-01T10:59:43.434Z,101226.00
2018-07-01T11:02:12.575Z,101220.23
2018-07-01T11:04:41.688Z,101218.06
2018-07-01T11:07:11.076Z,101217.55
2018-07-01T11:09:41.076Z,101215.09
2018-07-01T11:12:10.563Z,101209.81
2018-07-01T11:14:39.901Z,101198.63
2018-07-01T11:17:09.063Z,101201.38
2018-07-01T11:19:38.366Z,101193.44
2018-07-01T11:22:07.579Z,101191.91
2018-07-01T11:24:36.723Z,101193.25
2018-07-01T11:27:06.096Z,101192.19
2018-07-01T11:29:35.005Z,101184.95
2018-07-01T11:32:04.113Z,101187.19
2018-07-01T11:34:33.269Z,101184.16
2018-07-01T11:37:02.405Z,101175.97
2018-07-01T11:39:31.524Z,101177.78
2018-07-01T11:42:00.594Z,101177.80
2018-07-01T11:44:29.767Z,101170.05
2018-07-01T11:46:58.903Z,101170.73
2018-07-01T11:49:28.026Z,101175.00
2018-07-01T11:51:57.174Z,101174.62
2018-07-01T11:54:26.339Z,101176.06
2018-07-01T11:56:55.432Z,101176.41
2018-07-01T11:59:24.700Z,101173.70
2018-07-01T12:01:53.869Z,101180.74
2018-07-01T12:04:24.492Z,101173.63
2018-07-01T12:06:54.066Z,101189.03
2018-07-01T12:09:23.183Z,101171.27
2018-07-01T12:11:52.315Z,101174.64
2018-07-01T12:14:22.844Z,101175.09
2018-07-01T12:16:52.507Z,101177.82
2018-07-01T12:19:22.569Z,101164.16
2018-07-01T12:21:53.958Z,101167.25
2018-07-01T12:24:23.524Z,101169.94
2018-07-01T12:26:53.389Z,101161.09
2018-07-01T12:29:22.495Z,101149.16
2018-07-01T12:31:51.585Z,101149.33
2018-07-01T12:34:20.689Z,101162.28
2018-07-01T12:36:49.821Z,101159.92
2018-07-01T12:39:18.986Z,101154.53
2018-07-01T12:41:48.131Z,101149.58
2018-07-01T12:44:17.222Z,101148.54
2018-07-01T12:46:46.356Z,101142.56
2018-07-01T12:49:15.660Z,101137.89
2018-07-01T12:51:44.792Z,101140.72
2018-07-01T12:54:13.937Z,101147.50
2018-07-01T12:56:43.039Z,101132.28
2018-07-01T12:59:12.106Z,101141.12
2018-07-01T13:01:41.200Z,101142.48
2018-07-01T13:04:10.349Z,101133.52
2018-07-01T13:06:39.468Z,101130.92
2018-07-01T13:09:11.128Z,101125.66
2018-07-01T13:11:40.489Z,101121.22
2018-07-01T13:14:09.626Z,101121.59
2018-07-01T13:16:38.707Z,101129.38
2018-07-01T13:19:07.990Z,101125.73
2018-07-01T13:21:37.141Z,101120.65
2018-07-01T13:24:06.253Z,101110.54
2018-07-01T13:26:35.380Z,101116.84
2018-07-01T13:29:04.957Z,101110.31
2018-07-01T13:31:34.097Z,101105.23
2018-07-01T13:34:03.213Z,101110.38
2018-07-01T13:36:32.396Z,101111.84
2018-07-01T13:39:01.989Z,101103.95
2018-07-01T13:41:31.096Z,101097.06
2018-07-01T13:44:00.255Z,101095.42
2018-07-01T13:46:29.518Z,101091.86
2018-07-01T13:48:58.693Z,101089.82
2018-07-01T13:51:27.794Z,101089.73
2018-07-01T13:53:57.552Z,101078.70
2018-07-01T13:56:26.743Z,101078.70
2018-07-01T13:58:56.382Z,101069.56
2018-07-01T14:01:25.605Z,101072.91
2018-07-01T14:03:54.679Z,101069.86
2018-07-01T14:06:23.931Z,101073.39
2018-07-01T14:08:52.958Z,101077.95
2018-07-01T14:11:22.094Z,101068.90
2018-07-01T14:13:52.148Z,101062.27
2018-07-01T14:16:27.514Z,101067.51
2018-07-01T14:18:56.635Z,101071.77
2018-07-01T14:21:25.743Z,101071.30
2018-07-01T14:23:54.910Z,101069.19
2018-07-01T14:26:24.048Z,101072.35
2018-07-01T14:28:53.164Z,101066.56
2018-07-01T14:31:22.367Z,101061.13
2018-07-01T14:33:51.527Z,101062.41
2018-07-01T14:36:20.764Z,101056.72
2018-07-01T14:38:50.029Z,101048.66
2018-07-01T14:41:19.218Z,101051.76
2018-07-01T14:43:48.336Z,101053.00
2018-07-01T14:46:17.436Z,101050.58
2018-07-01T14:48:46.551Z,101055.27
2018-07-01T14:51:15.669Z,101049.41
2018-07-01T14:53:44.800Z,101053.31
2018-07-01T14:56:13.921Z,101048.81
2018-07-01T14:58:43.004Z,101056.07
2018-07-01T15:01:12.105Z,101057.13
2018-07-01T15:03:41.210Z,101051.63
2018-07-01T15:06:10.636Z,101047.05
2018-07-01T15:08:39.921Z,101040.28
2018-07-01T15:11:09.112Z,101037.81
2018-07-01T15:13:38.157Z,101039.52
2018-07-01T15:16:07.362Z,101038.16
2018-07-01T15:18:36.472Z,101037.55
2018-07-01T15:21:05.608Z,101035.93
2018-07-01T15:23:34.693Z,101037.94
2018-07-01T15:26:03.823Z,101027.73
2018-07-01T15:28:32.931Z,101027.48
2018-07-01T15:31:02.061Z,101026.59
2018-07-01T15:33:31.181Z,101019.71
2018-07-01T15:36:00.332Z,101019.55
2018-07-01T15:38:29.407Z,101014.49
2018-07-01T15:40:58.528Z,101007.86
2018-07-01T15:43:27.647Z,101006.78
2018-07-01T15:45:56.744Z,101011.58
2018-07-01T15:48:25.989Z,101009.76
2018-07-01T15:50:55.151Z,101010.02
2018-07-01T15:53:24.297Z,101006.22
2018-07-01T15:55:53.398Z,101007.31
2018-07-01T15:58:22.612Z,101003.74
2018-07-01T16:00:51.809Z,100999.00
2018-07-01T16:03:20.858Z,100997.66
2018-07-01T16:05:50.022Z,100998.24
2018-07-01T16:08:20.624Z,101000.70
2018-07-01T16:10:49.827Z,101001.67
2018-07-01T16:13:20.086Z,101000.61
2018-07-01T16:15:49.577Z,100996.88
2018-07-01T16:18:19.725Z,101000.68
2018-07-01T16:20:49.937Z,100996.64
2018-07-01T16:23:19.079Z,101001.16
2018-07-01T16:25:53.450Z,100996.73
2018-07-01T16:28:27.909Z,100995.05
2018-07-01T16:30:57.002Z,100995.25
2018-07-01T16:33:26.138Z,100996.77
2018-07-01T16:35:55.231Z,100993.55
2018-07-01T16:38:24.335Z,100993.94
2018-07-01T16:40:53.519Z,100991.59
2018-07-01T16:43:22.573Z,100988.42
2018-07-01T16:45:51.714Z,100994.91
2018-07-01T16:48:20.773Z,100994.00
2018-07-01T16:50:49.910Z,100989.20
2018-07-01T16:53:19.424Z,100986.52
2018-07-01T16:55:48.587Z,100992.66
2018-07-01T16:58:17.715Z,100991.98
2018-07-01T17:00:46.892Z,100992.72
2018-07-01T17:03:15.993Z,100991.56
2018-07-01T17:05:45.120Z,100993.45
2018-07-01T17:08:14.280Z,100988.38
2018-07-01T17:10:43.388Z,100995.17
2018-07-01T17:13:12.496Z,100996.17
2018-07-01T17:15:42.227Z,100997.20
2018-07-01T17:18:11.321Z,100992.98
2018-07-01T17:20:40.453Z,100998.05
2018-07-01T17:23:09.733Z,100994.36
2018-07-01T17:25:44.117Z,100998.57
2018-07-01T17:28:13.231Z,100999.95
2018-07-01T17:30:42.336Z,100995.52
2018-07-01T17:33:16.685Z,100994.51
2018-07-01T17:35:45.750Z,100999.27
2018-07-01T17:38:14.876Z,100996.55
2018-07-01T17:40:44.013Z,100995.21
2018-07-01T17:43:13.137Z,100998.41
2018-07-01T17:45:42.257Z,101001.30
2018-07-01T17:48:11.320Z,100998.95
2018-07-01T17:50:40.440Z,100992.84
2018-07-01T17:53:10.155Z,100993.69
2018-07-01T17:55:39.314Z,100995.23
2018-07-01T17:58:08.509Z,100998.27
2018-07-01T18:00:37.664Z,101001.66
2018-07-01T18:03:06.794Z,100993.88
2018-07-01T18:05:35.894Z,100997.61
2018-07-01T18:08:05.566Z,100992.86
2018-07-01T18:10:34.702Z,100995.59
2018-07-01T18:13:03.805Z,100995.91
2018-07-01T18:15:32.952Z,100993.52
2018-07-01T18:18:02.100Z,100996.89
2018-07-01T18:20:31.219Z,100989.94
2018-07-01T18:23:27.403Z,100987.41
2018-07-01T18:25:29.518Z,100989.57
2018-07-01T18:28:11.470Z,100986.05
2018-07-01T18:30:27.939Z,100989.73
2018-07-01T18:32:58.234Z,100990.92
2018-07-01T18:35:27.487Z,100997.88
2018-07-01T18:37:56.582Z,100998.01
2018-07-01T18:40:25.754Z,100994.80
2018-07-01T18:42:54.877Z,100989.70
2018-07-01T18:45:24.977Z,100995.14
2018-07-01T18:47:54.181Z,100992.41
2018-07-01T18:50:23.268Z,100993.10
2018-07-01T18:52:53.093Z,100996.14
2018-07-01T18:55:22.173Z,100993.73
2018-07-01T18:57:51.306Z,100997.79
2018-07-01T19:00:20.391Z,100999.58
2018-07-01T19:02:49.481Z,100999.41
2018-07-01T19:05:18.590Z,100994.16
2018-07-01T19:07:47.734Z,100999.54
2018-07-01T19:10:16.812Z,101002.90
2018-07-01T19:12:45.993Z,101005.23
2018-07-01T19:15:15.119Z,101010.63
2018-07-01T19:17:44.258Z,101010.10
2018-07-01T19:20:13.438Z,101006.86
2018-07-01T19:22:42.590Z,101009.19
2018-07-01T19:25:11.681Z,101010.33
2018-07-01T19:27:40.814Z,101008.64
2018-07-01T19:30:09.905Z,101011.27
2018-07-01T19:32:39.069Z,101016.61
2018-07-01T19:35:08.237Z,101028.70
2018-07-01T19:37:37.417Z,101020.53
2018-07-01T19:40:06.600Z,101025.86
2018-07-01T19:42:35.845Z,101029.51
2018-07-01T19:45:05.734Z,101031.16
2018-07-01T19:47:34.855Z,101032.59
2018-07-01T19:50:04.049Z,101034.83
2018-07-01T19:52:33.145Z,101036.65
2018-07-01T19:55:02.243Z,101034.85
2018-07-01T19:57:31.363Z,101038.16
2018-07-01T20:00:00.529Z,101039.80
2018-07-01T20:02:29.745Z,101043.44
2018-07-01T20:04:58.845Z,101047.39
2018-07-01T20:07:28.028Z,101044.59
2018-07-01T20:09:57.892Z,101052.74
2018-07-01T20:12:27.283Z,101054.17
2018-07-01T20:14:56.420Z,101055.08
2018-07-01T20:17:26.331Z,101052.83
2018-07-01T20:19:56.094Z,101057.44
2018-07-01T20:22:25.338Z,101058.86
2018-07-01T20:24:55.881Z,101061.14
2018-07-01T20:27:25.000Z,101066.26
2018-07-01T20:29:54.466Z,101065.02
2018-07-01T20:32:24.419Z,101063.74
2018-07-01T20:34:53.657Z,101067.32
2018-07-01T20:37:22.915Z,101069.45
2018-07-01T20:39:52.074Z,101077.36
2018-07-01T20:42:21.213Z,101076.45
2018-07-01T20:44:50.389Z,101086.31
2018-07-01T20:47:19.615Z,101080.87
2018-07-01T20:49:48.826Z,101081.94
2018-07-01T20:52:17.907Z,101079.97
2018-07-01T20:54:47.010Z,101086.98
2018-07-01T20:57:16.104Z,101082.80
2018-07-01T20:59:45.291Z,101081.03
2018-07-01T21:02:14.543Z,101078.77
2018-07-01T21:04:43.622Z,101085.06
2018-07-01T21:07:14.514Z,101087.45
2018-07-01T21:09:45.366Z,101086.05
2018-07-01T21:12:14.698Z,101083.02
2018-07-01T21:14:45.638Z,101084.36
2018-07-01T21:17:15.685Z,101089.03
2018-07-01T21:19:45.883Z,101089.88
2018-07-01T21:22:17.333Z,101088.23
2018-07-01T21:24:47.405Z,101092.48
2018-07-01T21:27:17.235Z,101094.38
2018-07-01T21:29:46.689Z,101094.52
2018-07-01T21:32:18.413Z,101098.41
2018-07-01T21:34:53.932Z,101109.17
2018-07-01T21:37:28.330Z,101101.14
2018-07-01T21:40:02.681Z,101110.69
2018-07-01T21:42:33.971Z,101114.41
2018-07-01T21:45:03.710Z,101117.52
2018-07-01T21:47:35.261Z,101114.41
2018-07-01T21:50:06.568Z,101119.33
2018-07-01T21:52:35.820Z,101117.60
2018-07-01T21:55:07.263Z,101124.59
2018-07-01T21:57:37.481Z,101128.90
2018-07-01T22:00:09.546Z,101122.59
2018-07-01T22:02:40.989Z,101120.89
2018-07-01T22:05:14.089Z,101121.16
2018-07-01T22:07:45.063Z,101122.42
2018-07-01T22:10:20.650Z,101123.31
2018-07-01T22:12:52.427Z,101127.12
2018-07-01T22:15:33.631Z,101128.87
2018-07-01T22:18:03.335Z,101132.70
2018-07-01T22:20:34.330Z,101137.00
2018-07-01T22:23:03.593Z,101125.20
2018-07-01T22:25:33.021Z,101140.34
2018-07-01T22:28:02.561Z,101132.31
2018-07-01T22:30:33.756Z,101136.13
2018-07-01T22:33:05.127Z,101135.39
2018-07-01T22:35:36.336Z,101132.75
2018-07-01T22:38:08.339Z,101127.88
2018-07-01T22:40:37.709Z,101134.98
2018-07-01T22:43:08.511Z,101133.16
2018-07-01T22:45:40.885Z,101127.09
2018-07-01T22:48:12.768Z,101135.02
2018-07-01T22:50:46.811Z,101138.54
2018-07-01T22:53:16.176Z,101130.40
2018-07-01T22:55:47.978Z,101136.85
2018-07-01T22:58:20.607Z,101141.78
2018-07-01T23:00:50.038Z,101143.48
2018-07-01T23:03:20.114Z,101138.02
2018-07-01T23:05:49.236Z,101135.33
2018-07-01T23:08:21.647Z,101139.88
2018-07-01T23:10:53.477Z,101136.71
2018-07-01T23:13:27.628Z,101132.69
2018-07-01T23:15:56.878Z,101137.34
2018-07-01T23:18:26.076Z,101143.45
2018-07-01T23:20:55.699Z,101138.94
2018-07-01T23:23:25.302Z,101134.47
2018-07-01T23:25:54.663Z,101132.05
2018-07-01T23:28:24.243Z,101135.68
2018-07-01T23:30:53.612Z,101135.93
2018-07-01T23:33:23.935Z,101133.86
2018-07-01T23:35:53.312Z,101127.66
2018-07-01T23:38:22.434Z,101126.22
2018-07-01T23:40:51.567Z,101128.52
2018-07-01T23:43:20.829Z,101128.50
2018-07-01T23:45:50.026Z,101120.23
2018-07-01T23:48:19.148Z,101112.91
2018-07-01T23:50:48.289Z,101118.66
2018-07-01T23:53:17.374Z,101118.17
2018-07-01T23:55:46.507Z,101107.47
2018-07-01T23:58:15.623Z,101109.53
